Time;durP1;ratioP1;P1;durP2;ratioP2;P2;SDS_P1;SDS_P2;PMS_P1;PMS_P2;Temp;Humidity;BMP_temperature;BMP_pressure;BME280_temperature;BME280_humidity;BME280_pressure;Samples;Min_cycle;Max_cycle;Signal;HPM_P1;HPM_P2
2024/03/06 00:01:10;;;;;;;1.73;1.00;;;;;;;1.40;67.99;101808.06;5125988;28;20019;-64
2024/03/06 00:03:35;;;;;;;1.58;1.02;;;;;;;1.34;68.05;101798.41;5125856;28;20487;-62
2024/03/06 00:06:00;;;;;;;2.20;2.10;;;;;;;1.30;68.11;101809.25;5125952;28;20050;-64
2024/03/06 00:08:26;;;;;;;1.98;1.88;;;;;;;1.28;68.42;101813.44;5125528;28;20054;-64
2024/03/06 00:10:52;;;;;;;1.60;1.50;;;;;;;1.26;68.42;101812.47;5125740;28;20055;-64
2024/03/06 00:13:17;;;;;;;0.73;0.73;;;;;;;1.25;68.53;101821.81;5125411;28;20051;-63
2024/03/06 00:15:42;;;;;;;1.75;1.65;;;;;;;1.27;68.43;101821.88;5125044;28;20019;-63
2024/03/06 00:18:08;;;;;;;1.38;1.25;;;;;;;1.23;68.68;101811.50;5107145;28;20080;-62
2024/03/06 00:20:33;;;;;;;1.55;1.45;;;;;;;1.24;68.72;101825.19;5125746;28;20058;-64
2024/03/06 00:22:59;;;;;;;0.80;0.80;;;;;;;1.18;68.77;101799.28;5107284;28;20020;-64
2024/03/06 00:25:25;;;;;;;1.85;1.65;;;;;;;1.20;68.79;101810.44;5107255;28;20026;-63
2024/03/06 00:27:50;;;;;;;1.52;1.40;;;;;;;1.19;68.90;101812.13;5125489;28;20206;-64
2024/03/06 00:30:15;;;;;;;1.40;1.35;;;;;;;1.17;68.98;101815.41;5125387;28;20023;-63
2024/03/06 00:32:41;;;;;;;2.08;1.17;;;;;;;1.17;69.01;101795.81;5125308;28;20015;-63
2024/03/06 00:35:06;;;;;;;2.78;2.03;;;;;;;1.16;69.10;101803.41;5125409;28;20030;-63
2024/03/06 00:37:32;;;;;;;2.25;1.30;;;;;;;1.21;69.13;101810.56;5125353;28;20076;-63
2024/03/06 00:39:57;;;;;;;1.45;1.35;;;;;;;1.22;69.19;101812.31;5106872;28;20031;-63
2024/03/06 00:42:22;;;;;;;0.77;0.77;;;;;;;1.27;68.86;101802.31;5125248;28;20020;-62
2024/03/06 00:44:48;;;;;;;1.05;1.05;;;;;;;1.22;69.06;101811.41;5125413;28;20030;-63
2024/03/06 00:47:13;;;;;;;5.00;2.20;;;;;;;1.20;69.22;101808.78;5125319;28;20032;-63
2024/03/06 00:49:38;;;;;;;4.75;1.27;;;;;;;1.20;69.24;101815.56;5125134;28;20360;-64
2024/03/06 00:52:04;;;;;;;0.73;0.73;;;;;;;1.18;69.24;101795.00;5125045;28;20012;-63
2024/03/06 00:54:30;;;;;;;1.90;1.65;;;;;;;1.17;69.14;101798.38;5125111;28;20570;-63
2024/03/06 00:56:57;;;;;;;2.28;1.83;;;;;;;1.11;69.46;101798.06;5124976;28;20023;-63
2024/03/06 00:59:22;;;;;;;1.85;1.50;;;;;;;1.13;69.47;101803.25;5123639;28;20023;-63
2024/03/06 01:01:48;;;;;;;2.60;1.80;;;;;;;1.11;69.50;101800.63;5124917;28;20019;-64
2024/03/06 01:04:13;;;;;;;0.73;0.73;;;;;;;1.10;69.60;101797.16;5125130;28;20019;-63
2024/03/06 01:06:39;;;;;;;1.08;1.08;;;;;;;1.10;69.70;101796.31;5125107;28;20028;-64
2024/03/06 01:09:05;;;;;;;1.42;1.33;;;;;;;1.13;69.79;101804.16;5125058;28;20047;-64
2024/03/06 01:11:30;;;;;;;2.72;1.88;;;;;;;1.14;69.69;101807.56;5124914;28;20080;-63
2024/03/06 01:13:56;;;;;;;2.22;1.90;;;;;;;1.07;69.86;101796.16;5125013;28;20023;-63
2024/03/06 01:16:21;;;;;;;1.75;1.40;;;;;;;1.12;70.13;101812.59;5125016;28;20030;-63
2024/03/06 01:18:47;;;;;;;1.73;1.63;;;;;;;1.12;69.92;101817.72;5124818;28;20019;-63
2024/03/06 01:21:12;;;;;;;2.00;1.60;;;;;;;1.13;69.92;101800.69;5125122;28;20027;-64
2024/03/06 01:23:37;;;;;;;2.30;2.00;;;;;;;1.14;69.74;101802.44;5125040;28;20043;-64
2024/03/06 01:26:03;;;;;;;1.13;1.13;;;;;;;1.12;69.88;101810.03;5125073;28;20023;-64
2024/03/06 01:28:28;;;;;;;2.80;1.95;;;;;;;1.22;69.20;101798.63;5128514;28;20054;-63
2024/03/06 01:30:54;;;;;;;2.80;1.35;;;;;;;1.13;69.45;101811.81;5109768;28;20019;-64
2024/03/06 01:33:19;;;;;;;0.82;0.82;;;;;;;1.13;69.61;101801.59;5128561;28;20019;-63
2024/03/06 01:35:45;;;;;;;3.13;1.75;;;;;;;1.13;69.59;101805.81;5128361;28;20022;-64
2024/03/06 01:38:11;;;;;;;2.55;1.92;;;;;;;1.09;69.57;101792.84;5128539;28;20024;-63
2024/03/06 01:40:37;;;;;;;1.30;1.25;;;;;;;1.26;69.23;101792.88;5128494;28;20024;-63
2024/03/06 01:43:02;;;;;;;0.98;0.98;;;;;;;1.14;69.00;101794.78;5128455;28;20031;-63
2024/03/06 01:45:27;;;;;;;0.90;0.88;;;;;;;1.18;68.94;101800.13;5128453;28;20059;-63
2024/03/06 01:47:53;;;;;;;1.95;1.33;;;;;;;1.16;68.81;101796.63;5128086;28;20023;-64
2024/03/06 01:50:19;;;;;;;4.05;1.80;;;;;;;1.14;68.80;101793.09;5128097;28;20027;-63
2024/03/06 01:52:46;;;;;;;1.23;1.15;;;;;;;1.21;68.48;101805.44;5109757;28;20019;-63
2024/03/06 01:55:12;;;;;;;0.95;0.85;;;;;;;1.11;68.63;101787.81;5128043;28;20485;-63
2024/03/06 01:57:39;;;;;;;3.08;2.88;;;;;;;1.16;68.23;101782.94;5127772;28;20043;-64
2024/03/06 02:00:08;;;;;;;0.98;0.80;;;;;;;1.16;68.31;101795.75;5126692;28;20026;-63
2024/03/06 02:02:34;;;;;;;2.55;2.05;;;;;;;1.16;68.28;101786.41;5109745;28;20318;-64
2024/03/06 02:05:00;;;;;;;1.70;1.58;;;;;;;1.21;68.15;101774.72;5127972;28;20031;-64
2024/03/06 02:07:28;;;;;;;3.75;1.98;;;;;;;1.17;68.23;101780.47;5127602;28;20050;-64
2024/03/06 02:09:53;;;;;;;1.17;1.15;;;;;;;1.16;68.21;101771.03;5127593;28;20027;-64
2024/03/06 02:12:19;;;;;;;1.05;1.05;;;;;;;1.21;67.85;101777.28;5127481;28;20077;-65
2024/03/06 02:14:44;;;;;;;0.65;0.63;;;;;;;1.22;67.93;101771.38;5127925;28;20372;-64
2024/03/06 02:17:10;;;;;;;0.82;0.82;;;;;;;1.17;67.89;101772.78;5127578;28;20083;-64
2024/03/06 02:19:43;;;;;;;0.85;0.85;;;;;;;1.20;67.92;101767.84;5127417;28;20019;-63
2024/03/06 02:22:09;;;;;;;1.27;1.17;;;;;;;1.16;68.09;101771.03;5109295;28;20019;-65
2024/03/06 02:24:36;;;;;;;2.08;1.38;;;;;;;1.20;68.04;101764.38;5126102;28;20093;-63
2024/03/06 02:27:05;;;;;;;1.38;1.27;;;;;;;1.19;68.01;101776.31;5127393;28;20027;-64
2024/03/06 02:29:32;;;;;;;1.60;1.50;;;;;;;1.25;67.79;101764.66;5127095;28;20027;-63
2024/03/06 02:31:58;;;;;;;1.58;1.30;;;;;;;1.19;67.80;101768.66;5127211;28;20356;-63
2024/03/06 02:34:24;;;;;;;5.88;1.70;;;;;;;1.20;67.92;101762.72;5127404;28;20482;-63
2024/03/06 02:36:51;;;;;;;1.40;1.30;;;;;;;1.14;68.17;101774.31;5127407;28;20088;-63
2024/03/06 02:39:17;;;;;;;1.98;0.85;;;;;;;1.08;68.45;101768.09;5127033;28;20106;-63
2024/03/06 02:41:42;;;;;;;1.52;1.42;;;;;;;1.13;68.45;101770.88;5127500;28;20030;-63
2024/03/06 02:44:08;;;;;;;1.20;1.20;;;;;;;1.11;68.57;101787.81;5126966;28;20383;-63
2024/03/06 02:46:33;;;;;;;2.50;2.15;;;;;;;1.10;69.06;101775.84;5108654;28;20462;-63
2024/03/06 02:48:59;;;;;;;0.90;0.90;;;;;;;1.13;68.78;101786.22;5126861;28;20031;-63
2024/03/06 02:51:24;;;;;;;3.97;1.75;;;;;;;1.04;68.90;101778.06;5127076;28;20024;-65
2024/03/06 02:53:53;;;;;;;3.30;1.35;;;;;;;1.04;69.01;101776.38;5126975;28;20030;-65
2024/03/06 02:56:19;;;;;;;2.50;1.00;;;;;;;1.10;69.21;101784.38;5126832;28;20038;-65
2024/03/06 02:58:45;;;;;;;1.45;1.35;;;;;;;1.05;69.21;101782.38;5126752;28;20165;-63
2024/03/06 03:01:10;;;;;;;2.17;1.13;;;;;;;1.07;69.33;101798.69;5126692;28;20019;-64
2024/03/06 03:03:36;;;;;;;0.80;0.80;;;;;;;1.01;69.43;101775.38;5126598;28;20352;-63
2024/03/06 03:06:01;;;;;;;0.80;0.80;;;;;;;0.93;69.70;101778.38;5108406;28;20463;-63
2024/03/06 03:08:27;;;;;;;0.50;0.50;;;;;;;0.92;69.55;101773.16;5126259;28;20043;-64
2024/03/06 03:10:52;;;;;;;0.60;0.60;;;;;;;0.94;69.92;101781.81;5126554;28;20074;-64
2024/03/06 03:13:17;;;;;;;1.10;0.90;;;;;;;0.88;69.66;101778.94;5126296;28;20019;-64
2024/03/06 03:15:43;;;;;;;0.90;0.90;;;;;;;0.95;69.74;101792.13;5126792;28;20106;-64
2024/03/06 03:18:08;;;;;;;2.47;1.60;;;;;;;0.93;69.73;101793.72;5108006;28;20024;-63
2024/03/06 03:20:34;;;;;;;0.50;0.50;;;;;;;0.92;69.81;101791.06;5126360;28;20081;-63
2024/03/06 03:23:01;;;;;;;2.40;2.25;;;;;;;0.86;69.89;101791.63;5126558;28;20023;-65
2024/03/06 03:25:26;;;;;;;2.20;2.00;;;;;;;0.87;70.16;101798.50;5126468;28;20073;-63
2024/03/06 03:27:52;;;;;;;0.70;0.70;;;;;;;0.85;70.09;101789.84;5126194;28;20106;-64
2024/03/06 03:30:21;;;;;;;2.63;1.08;;;;;;;0.90;69.90;101798.66;5126119;28;20396;-63
2024/03/06 03:32:47;;;;;;;0.50;0.50;;;;;;;0.97;69.68;101802.44;5126242;28;20024;-63
2024/03/06 03:35:13;;;;;;;1.33;1.08;;;;;;;0.87;69.78;101788.28;5126237;28;20047;-63
2024/03/06 03:37:38;;;;;;;2.95;1.35;;;;;;;0.85;69.89;101798.41;5126182;28;20026;-62
2024/03/06 03:40:04;;;;;;;0.50;0.50;;;;;;;0.88;70.06;101796.84;5125939;28;20023;-63
2024/03/06 03:42:29;;;;;;;0.60;0.60;;;;;;;0.86;69.70;101779.72;5125987;28;20023;-63
2024/03/06 03:44:55;;;;;;;0.82;0.82;;;;;;;0.89;69.86;101789.25;5125995;28;20030;-63
2024/03/06 03:47:20;;;;;;;2.15;1.10;;;;;;;0.79;70.09;101769.97;5125889;28;20115;-63
2024/03/06 03:49:46;;;;;;;3.13;1.45;;;;;;;0.82;70.39;101764.13;5125263;28;20024;-63
2024/03/06 03:52:12;;;;;;;2.05;1.10;;;;;;;0.83;69.98;101771.03;5125860;28;20020;-62
2024/03/06 03:54:37;;;;;;;0.90;0.90;;;;;;;0.78;70.08;101768.22;5108814;28;20506;-62
2024/03/06 03:57:03;;;;;;;1.20;1.13;;;;;;;0.78;70.32;101768.22;5125834;28;20047;-63
2024/03/06 03:59:28;;;;;;;11.98;1.50;;;;;;;0.77;70.28;101784.34;5125701;28;20051;-63
2024/03/06 04:01:53;;;;;;;0.65;0.65;;;;;;;0.76;70.43;101785.13;5125767;28;20037;-63
2024/03/06 04:04:19;;;;;;;1.92;1.75;;;;;;;0.76;70.41;101784.25;5125541;28;20031;-65
2024/03/06 04:06:45;;;;;;;1.17;0.90;;;;;;;0.75;70.23;101791.06;5125574;28;20027;-64
2024/03/06 04:09:11;;;;;;;2.35;1.15;;;;;;;0.80;70.48;101794.72;5125619;28;20551;-64
2024/03/06 04:11:37;;;;;;;1.65;1.55;;;;;;;0.76;70.38;101800.47;5125691;28;20028;-64
2024/03/06 04:14:03;;;;;;;0.68;0.68;;;;;;;0.75;70.60;101791.06;5125428;28;20035;-64
2024/03/06 04:16:29;;;;;;;1.55;1.33;;;;;;;0.75;70.65;101798.72;5107281;28;20023;-64
2024/03/06 04:18:54;;;;;;;9.15;2.50;;;;;;;0.74;70.75;101800.41;5125502;28;20439;-64
2024/03/06 04:21:19;;;;;;;4.30;2.05;;;;;;;0.77;70.72;101797.13;5125609;28;20011;-64
2024/03/06 04:23:45;;;;;;;1.02;1.02;;;;;;;0.77;71.03;101806.47;5125581;28;20471;-64
2024/03/06 04:26:10;;;;;;;0.98;0.98;;;;;;;0.71;70.98;101791.66;5125373;28;20016;-64
2024/03/06 04:28:35;;;;;;;2.30;1.90;;;;;;;0.74;71.03;101792.72;5125352;28;20015;-64
2024/03/06 04:31:01;;;;;;;0.60;0.60;;;;;;;0.77;70.98;101796.25;5125574;28;20016;-64
2024/03/06 04:33:26;;;;;;;0.80;0.80;;;;;;;0.79;71.02;101799.75;5107105;28;20023;-64
2024/03/06 04:35:52;;;;;;;2.15;1.05;;;;;;;0.74;71.13;101800.41;5125677;28;20030;-64
2024/03/06 04:38:17;;;;;;;1.92;1.33;;;;;;;0.90;70.61;101800.34;5107272;28;20030;-64
2024/03/06 04:40:43;;;;;;;0.80;0.80;;;;;;;0.77;71.17;101797.13;5125008;28;20355;-64
2024/03/06 04:43:08;;;;;;;1.02;1.00;;;;;;;0.74;71.38;101808.06;5123980;28;20028;-63
2024/03/06 04:45:33;;;;;;;4.10;1.73;;;;;;;0.77;71.54;101804.78;5125315;28;20022;-64
2024/03/06 04:47:59;;;;;;;0.85;0.85;;;;;;;0.65;71.70;101801.56;5125285;28;20112;-64
2024/03/06 04:50:25;;;;;;;0.65;0.65;;;;;;;0.57;72.29;101796.03;5125231;28;20024;-64
2024/03/06 04:52:50;;;;;;;0.55;0.55;;;;;;;0.66;72.17;101809.31;5123810;28;20020;-64
2024/03/06 04:55:20;;;;;;;6.57;0.70;;;;;;;0.72;72.21;101813.88;5124012;28;20123;-64
2024/03/06 04:57:45;;;;;;;3.83;1.35;;;;;;;0.63;72.55;101804.03;5125047;28;20019;-64
2024/03/06 05:00:12;;;;;;;0.60;0.60;;;;;;;0.57;72.79;101804.59;5106998;28;20030;-64
2024/03/06 05:02:38;;;;;;;0.50;0.50;;;;;;;0.58;73.05;101818.22;5129144;28;20022;-64
2024/03/06 05:05:04;;;;;;;0.90;0.90;;;;;;;0.60;73.01;101824.31;5129109;28;20016;-64
2024/03/06 05:07:30;;;;;;;2.42;1.30;;;;;;;0.61;73.17;101823.50;5128702;28;20035;-64
2024/03/06 05:09:59;;;;;;;1.45;1.35;;;;;;;0.62;73.15;101827.84;5129001;28;20031;-64
2024/03/06 05:12:25;;;;;;;0.73;0.73;;;;;;;0.54;73.30;101824.88;5110357;28;20024;-64
2024/03/06 05:14:54;;;;;;;0.50;0.50;;;;;;;0.61;73.30;101833.72;5110130;28;20019;-63
2024/03/06 05:17:20;;;;;;;3.55;0.93;;;;;;;0.63;73.41;101839.81;5128933;28;20057;-64
2024/03/06 05:19:49;;;;;;;1.02;1.02;;;;;;;0.61;73.48;101841.41;5128639;28;20023;-65
2024/03/06 05:22:15;;;;;;;1.98;1.08;;;;;;;0.54;73.79;101844.41;5110551;28;20027;-63
2024/03/06 05:24:41;;;;;;;1.55;1.45;;;;;;;0.45;74.05;101837.09;5128768;28;20103;-64
2024/03/06 05:27:06;;;;;;;1.10;1.00;;;;;;;0.41;74.38;101840.28;5125757;28;20576;-65
2024/03/06 05:29:32;;;;;;;0.70;0.70;;;;;;;0.38;74.66;101845.22;5128521;28;20050;-65
2024/03/06 05:31:58;;;;;;;2.38;1.08;;;;;;;0.42;75.12;101845.47;5110292;28;20020;-64
2024/03/06 05:34:23;;;;;;;0.70;0.70;;;;;;;0.34;75.53;101852.72;5128489;28;20041;-65
2024/03/06 05:36:49;;;;;;;0.70;0.70;;;;;;;0.31;75.83;101852.53;5128678;28;20023;-64
2024/03/06 05:39:14;;;;;;;0.57;0.57;;;;;;;0.28;75.93;101857.47;5128532;28;20023;-65
2024/03/06 05:41:41;;;;;;;1.27;1.23;;;;;;;0.25;76.31;101847.09;5127293;28;20023;-64
2024/03/06 05:44:07;;;;;;;2.30;2.10;;;;;;;0.27;76.50;101849.72;5128659;28;20404;-64
2024/03/06 05:46:32;;;;;;;1.70;1.60;;;;;;;0.22;76.74;101852.88;5128300;28;20029;-64
2024/03/06 05:48:58;;;;;;;1.15;1.00;;;;;;;0.26;76.97;101850.53;5128275;28;20088;-66
2024/03/06 05:51:23;;;;;;;1.33;0.95;;;;;;;0.23;76.72;101854.66;5128269;28;20080;-66
2024/03/06 05:53:48;;;;;;;0.95;0.80;;;;;;;0.28;77.03;101860.03;5128378;28;20048;-66
2024/03/06 05:56:14;;;;;;;1.42;1.33;;;;;;;0.29;77.07;101853.25;5109700;28;20024;-65
2024/03/06 05:58:39;;;;;;;0.77;0.77;;;;;;;0.31;77.16;101861.88;5127910;28;20093;-64
2024/03/06 06:01:05;;;;;;;4.38;1.77;;;;;;;0.31;77.22;101860.22;5109667;28;20020;-65
2024/03/06 06:03:30;;;;;;;0.68;0.68;;;;;;;0.31;77.14;101866.97;5128368;28;20118;-65
2024/03/06 06:05:56;;;;;;;1.45;1.40;;;;;;;0.29;77.34;101858.38;5128174;28;20039;-65
2024/03/06 06:08:22;;;;;;;1.85;1.10;;;;;;;0.38;77.24;101871.66;5127695;28;20123;-65
2024/03/06 06:10:47;;;;;;;1.05;1.02;;;;;;;0.37;77.22;101867.31;5127866;28;20072;-67
2024/03/06 06:13:12;;;;;;;0.60;0.60;;;;;;;0.44;77.43;101874.56;5126909;28;20158;-65
2024/03/06 06:15:38;;;;;;;1.20;1.10;;;;;;;0.49;77.33;101878.28;5127952;28;20084;-65
2024/03/06 06:18:03;;;;;;;1.85;1.75;;;;;;;0.50;76.95;101868.91;5127943;28;20019;-65
2024/03/06 06:20:30;;;;;;;2.83;1.80;;;;;;;0.54;76.81;101883.66;5127643;28;20024;-65
2024/03/06 06:22:56;;;;;;;2.50;0.80;;;;;;;0.52;76.91;101876.66;5127738;28;20463;-67
2024/03/06 06:25:21;;;;;;;0.52;0.52;;;;;;;0.55;76.88;101887.94;5127766;28;20027;-67
2024/03/06 06:27:49;;;;;;;0.70;0.70;;;;;;;0.51;76.84;101885.13;5127400;28;20034;-68
2024/03/06 06:30:15;;;;;;;9.88;1.02;;;;;;;0.61;76.72;101897.63;5127592;28;20054;-67
2024/03/06 06:32:41;;;;;;;1.27;0.93;;;;;;;0.64;76.59;101899.50;5127506;28;20054;-66
2024/03/06 06:35:07;;;;;;;0.60;0.60;;;;;;;0.63;76.63;101893.50;5127316;28;20020;-65
2024/03/06 06:37:34;;;;;;;1.45;1.40;;;;;;;0.69;76.37;101898.97;5127635;28;20114;-65
2024/03/06 06:39:59;;;;;;;1.17;1.15;;;;;;;0.73;76.40;101906.03;5127629;28;20019;-64
2024/03/06 06:42:24;;;;;;;0.77;0.77;;;;;;;0.74;76.05;101910.31;5127179;28;20039;-65
2024/03/06 06:44:50;;;;;;;0.65;0.60;;;;;;;0.76;75.96;101907.84;5127295;28;20027;-65
2024/03/06 06:47:16;;;;;;;0.70;0.70;;;;;;;0.64;76.04;101899.50;5126103;28;20110;-65
2024/03/06 06:49:41;;;;;;;1.67;1.40;;;;;;;0.73;75.91;101903.47;5125922;28;20491;-64
2024/03/06 06:52:07;;;;;;;1.17;1.15;;;;;;;0.77;76.06;101906.19;5126819;28;20020;-64
2024/03/06 06:54:32;;;;;;;3.35;1.15;;;;;;;0.84;75.85;101919.41;5127038;28;20024;-65
2024/03/06 06:56:58;;;;;;;3.42;1.23;;;;;;;0.80;75.68;101904.66;5108575;28;20379;-65
2024/03/06 06:59:24;;;;;;;1.23;1.13;;;;;;;0.81;75.71;101915.78;5108299;28;20024;-65
2024/03/06 07:01:49;;;;;;;0.85;0.80;;;;;;;0.86;75.63;101925.47;5127128;28;20071;-65
2024/03/06 07:04:19;;;;;;;1.20;1.15;;;;;;;0.90;75.57;101936.75;5126996;28;20026;-65
2024/03/06 07:06:46;;;;;;;1.30;1.25;;;;;;;0.83;75.60;101922.72;5125643;28;20023;-65
2024/03/06 07:09:12;;;;;;;1.50;1.40;;;;;;;0.93;75.62;101938.59;5126523;28;20059;-64
2024/03/06 07:11:37;;;;;;;1.38;1.27;;;;;;;0.91;75.29;101929.97;5125522;28;20380;-66
2024/03/06 07:14:02;;;;;;;1.40;1.02;;;;;;;0.96;75.36;101941.31;5126630;28;20059;-66
2024/03/06 07:16:28;;;;;;;0.60;0.60;;;;;;;0.99;75.24;101941.53;5125410;28;20537;-64
2024/03/06 07:18:53;;;;;;;2.00;1.45;;;;;;;1.02;75.25;101951.91;5126818;28;20079;-66
2024/03/06 07:21:19;;;;;;;1.13;1.13;;;;;;;1.11;74.80;101954.09;5126595;28;20020;-66
2024/03/06 07:23:44;;;;;;;1.23;1.15;;;;;;;1.08;74.61;101949.69;5126714;28;20442;-67
2024/03/06 07:26:10;;;;;;;1.10;1.10;;;;;;;1.13;74.77;101956.75;5125173;28;20024;-64
2024/03/06 07:28:37;;;;;;;6.40;2.47;;;;;;;1.11;74.79;101956.66;5126210;28;20092;-65
2024/03/06 07:31:02;;;;;;;3.08;1.50;;;;;;;1.09;74.74;101964.25;5126436;28;20028;-64
2024/03/06 07:33:28;;;;;;;0.50;0.50;;;;;;;1.08;74.68;101952.25;5126355;28;20514;-66
2024/03/06 07:35:53;;;;;;;3.05;1.30;;;;;;;1.19;74.51;101965.66;5126485;28;20038;-65
2024/03/06 07:38:19;;;;;;;1.95;1.25;;;;;;;1.18;74.30;101963.88;5126349;28;20024;-64
2024/03/06 07:40:44;;;;;;;2.40;1.50;;;;;;;1.12;74.44;101958.41;5107507;28;20028;-65
2024/03/06 07:43:11;;;;;;;0.88;0.88;;;;;;;1.09;74.39;101945.44;5126014;28;20085;-65
2024/03/06 07:45:36;;;;;;;0.93;0.93;;;;;;;1.15;74.49;101957.72;5126171;28;20020;-64
2024/03/06 07:48:02;;;;;;;1.23;1.13;;;;;;;1.21;74.27;101958.94;5126198;28;20045;-65
2024/03/06 07:50:27;;;;;;;1.33;0.88;;;;;;;1.25;74.16;101959.13;5126049;28;20024;-64
2024/03/06 07:52:54;;;;;;;0.75;0.75;;;;;;;1.25;73.96;101971.91;5107570;28;20503;-63
2024/03/06 07:55:22;;;;;;;0.93;0.93;;;;;;;1.25;74.18;101967.66;5126094;28;20479;-64
2024/03/06 07:57:48;;;;;;;1.02;1.00;;;;;;;1.25;74.07;101965.09;5126018;28;20041;-65
2024/03/06 08:00:19;;;;;;;0.50;0.50;;;;;;;1.25;73.77;101969.34;5125879;28;20293;-65
2024/03/06 08:02:49;;;;;;;2.00;1.90;;;;;;;1.16;73.97;101950.13;5107549;28;20151;-65
2024/03/06 08:05:15;;;;;;;0.57;0.57;;;;;;;1.32;73.87;101984.22;5124372;28;20030;-66
2024/03/06 08:07:44;;;;;;;1.63;1.52;;;;;;;1.35;73.71;101984.41;5125718;28;20056;-64
2024/03/06 08:10:14;;;;;;;1.27;0.70;;;;;;;1.31;73.46;101979.91;5125759;28;20034;-64
2024/03/06 08:12:41;;;;;;;1.90;1.80;;;;;;;1.38;73.72;101992.25;5107633;28;20028;-65
2024/03/06 08:15:09;;;;;;;1.02;1.02;;;;;;;1.35;73.71;101979.28;5125921;28;20023;-64
2024/03/06 08:17:35;;;;;;;1.83;0.82;;;;;;;1.42;73.54;101990.75;5107467;28;20046;-65
2024/03/06 08:20:02;;;;;;;6.90;1.15;;;;;;;1.39;73.52;101994.00;5125663;28;20019;-65
2024/03/06 08:22:27;;;;;;;1.25;1.15;;;;;;;1.40;73.38;101990.66;5125739;28;20035;-64
2024/03/06 08:24:52;;;;;;;1.20;1.10;;;;;;;1.44;73.45;101992.56;5125712;28;20053;-64
2024/03/06 08:27:19;;;;;;;1.55;1.42;;;;;;;1.47;72.97;101992.75;5125687;28;20436;-64
2024/03/06 08:29:44;;;;;;;0.70;0.70;;;;;;;1.54;73.10;102000.75;5125429;28;20035;-65
2024/03/06 08:32:09;;;;;;;0.70;0.68;;;;;;;1.64;72.26;101997.03;5125556;28;20034;-65
2024/03/06 08:34:35;;;;;;;0.82;0.82;;;;;;;1.65;72.24;101999.66;5125599;28;20027;-65
2024/03/06 08:37:00;;;;;;;0.88;0.88;;;;;;;1.64;72.44;102009.81;5128902;28;20023;-64
2024/03/06 08:39:25;;;;;;;0.45;0.45;;;;;;;1.67;72.51;102005.75;5111396;28;20019;-66
2024/03/06 08:41:52;;;;;;;2.95;1.17;;;;;;;1.71;72.31;101992.31;5129752;28;20011;-64
2024/03/06 08:44:18;;;;;;;1.90;1.23;;;;;;;1.77;72.11;101998.56;5111107;28;20084;-64
2024/03/06 08:46:43;;;;;;;2.00;1.90;;;;;;;1.76;71.70;101994.25;5129487;28;20050;-65
2024/03/06 08:49:11;;;;;;;4.80;1.83;;;;;;;1.82;71.95;102010.81;5129546;28;20028;-65
2024/03/06 08:51:36;;;;;;;1.08;1.02;;;;;;;1.90;71.01;102008.66;5129520;28;20111;-65
2024/03/06 08:54:02;;;;;;;1.20;0.98;;;;;;;1.90;71.32;102013.78;5129514;28;20395;-65
2024/03/06 08:56:28;;;;;;;0.55;0.55;;;;;;;1.91;71.18;102010.44;5129340;28;20031;-65
2024/03/06 08:58:53;;;;;;;3.00;1.88;;;;;;;1.93;70.76;102015.66;5129308;28;20024;-65
2024/03/06 09:01:18;;;;;;;1.23;1.00;;;;;;;1.95;70.49;102019.19;5129319;28;20088;-65
2024/03/06 09:03:44;;;;;;;1.40;1.30;;;;;;;1.97;70.54;102025.25;5129209;28;20015;-64
2024/03/06 09:06:10;;;;;;;0.77;0.77;;;;;;;2.01;70.41;102016.94;5110978;28;20027;-65
2024/03/06 09:08:36;;;;;;;2.60;1.23;;;;;;;2.01;70.31;102014.38;5110495;28;20068;-64
2024/03/06 09:11:01;;;;;;;1.10;1.10;;;;;;;2.16;70.17;102029.66;5128863;28;20083;-64
2024/03/06 09:13:27;;;;;;;1.27;1.13;;;;;;;2.18;70.17;102017.81;5110573;28;20466;-65
2024/03/06 09:15:53;;;;;;;1.00;0.90;;;;;;;2.28;69.94;102029.44;5128856;28;20083;-64
2024/03/06 09:18:18;;;;;;;1.42;0.98;;;;;;;2.37;69.61;102034.16;5129084;28;20041;-66
2024/03/06 09:20:43;;;;;;;0.77;0.77;;;;;;;2.37;69.25;102036.72;5128781;28;20108;-64
2024/03/06 09:23:09;;;;;;;1.30;1.02;;;;;;;2.32;68.99;102022.75;5128871;28;20024;-64
2024/03/06 09:25:34;;;;;;;1.02;1.02;;;;;;;2.40;69.35;102035.97;5128937;28;20024;-65
2024/03/06 09:28:04;;;;;;;0.52;0.52;;;;;;;2.43;69.28;102029.34;5128594;28;20077;-66
2024/03/06 09:30:29;;;;;;;0.73;0.73;;;;;;;2.45;69.35;102035.44;5128692;28;20026;-65
2024/03/06 09:32:55;;;;;;;0.88;0.75;;;;;;;2.50;69.07;102027.09;5128654;28;20051;-65
2024/03/06 09:35:20;;;;;;;1.92;0.93;;;;;;;2.59;68.61;102033.56;5110236;28;20026;-65
2024/03/06 09:37:46;;;;;;;1.23;1.10;;;;;;;2.59;68.49;102027.53;5128472;28;20447;-66
2024/03/06 09:40:20;;;;;;;2.90;1.65;;;;;;;2.63;68.25;102044.88;5127123;28;20031;-65
2024/03/06 09:42:45;;;;;;;0.60;0.60;;;;;;;2.60;67.92;102032.75;5128811;28;20121;-64
2024/03/06 09:45:11;;;;;;;0.68;0.68;;;;;;;2.64;67.65;102028.66;5128418;28;20487;-65
2024/03/06 09:47:38;;;;;;;0.80;0.73;;;;;;;2.65;67.76;102045.81;5108712;28;20042;-65
2024/03/06 09:50:09;;;;;;;1.00;0.93;;;;;;;2.60;67.90;102031.91;5128244;28;20020;-65
2024/03/06 09:52:36;;;;;;;0.80;0.80;;;;;;;2.69;67.48;102055.44;5110127;28;20107;-65
2024/03/06 09:55:02;;;;;;;0.73;0.73;;;;;;;2.70;66.94;102034.09;5128227;28;20104;-65
2024/03/06 09:57:27;;;;;;;0.85;0.85;;;;;;;2.65;66.81;102050.94;5128266;28;20035;-65
2024/03/06 09:59:53;;;;;;;3.72;1.00;;;;;;;2.64;66.82;102044.06;5109653;28;20027;-65
2024/03/06 10:02:57;;;;;;;1.02;0.95;;;;;;;2.72;67.08;102063.28;5128272;28;20020;-65
2024/03/06 10:05:23;;;;;;;2.70;1.13;;;;;;;2.68;67.19;102063.06;5124751;28;20035;-65
2024/03/06 10:07:51;;;;;;;1.00;0.82;;;;;;;2.61;66.96;102041.34;5127830;28;20093;-66
2024/03/06 10:10:17;;;;;;;1.30;0.98;;;;;;;2.73;66.98;102057.34;5127705;28;20562;-64
2024/03/06 10:12:44;;;;;;;0.70;0.70;;;;;;;2.77;66.77;102067.75;5127957;28;20027;-65
2024/03/06 10:15:12;;;;;;;1.67;1.13;;;;;;;2.79;66.40;102055.91;5127631;28;20030;-66
2024/03/06 10:17:37;;;;;;;1.48;1.38;;;;;;;2.78;66.72;102052.44;5109604;28;20027;-64
2024/03/06 10:20:16;;;;;;;1.25;1.08;;;;;;;2.82;66.82;102053.50;5126401;28;20119;-64
2024/03/06 10:22:43;;;;;;;4.00;2.00;;;;;;;2.80;66.98;102043.16;5127784;28;20023;-65
2024/03/06 10:25:09;;;;;;;1.35;1.25;;;;;;;2.90;67.14;102052.19;5127713;28;20047;-64
2024/03/06 10:27:35;;;;;;;2.47;1.60;;;;;;;2.89;67.13;102047.00;5127580;28;20030;-64
2024/03/06 10:30:02;;;;;;;0.95;0.95;;;;;;;2.91;67.16;102056.50;5127347;28;20023;-64
2024/03/06 10:32:30;;;;;;;0.80;0.80;;;;;;;2.93;67.40;102059.16;5127587;28;20020;-65
2024/03/06 10:34:55;;;;;;;8.02;1.90;;;;;;;2.92;67.56;102055.72;5127566;28;20050;-64
2024/03/06 10:37:22;;;;;;;1.00;1.00;;;;;;;2.97;67.33;102059.38;5127507;28;20347;-64
2024/03/06 10:39:54;;;;;;;1.88;1.55;;;;;;;3.06;67.16;102064.09;5127470;28;20024;-64
2024/03/06 10:42:20;;;;;;;;;;;;;;;3.13;66.96;102065.25;5127972;28;20088;-64
2024/03/06 10:44:52;;;;;;;1.45;1.17;;;;;;;3.14;66.91;102069.59;5127339;28;19914;-65
2024/03/06 10:47:19;;;;;;;1.75;0.70;;;;;;;3.15;67.14;102057.63;5127539;28;20043;-65
2024/03/06 10:49:45;;;;;;;1.30;1.15;;;;;;;3.26;67.16;102066.75;5127166;28;20023;-64
2024/03/06 10:52:11;;;;;;;0.95;0.95;;;;;;;3.36;67.10;102062.94;5127248;28;20027;-66
2024/03/06 10:54:41;;;;;;;6.10;1.35;;;;;;;3.35;66.80;102038.09;5127162;28;20379;-65
2024/03/06 10:57:10;;;;;;;1.38;1.27;;;;;;;3.57;66.66;102060.53;5125607;28;20034;-66
2024/03/06 10:59:35;;;;;;;0.93;0.93;;;;;;;3.71;66.90;102065.41;5125333;28;20110;-66
2024/03/06 11:02:01;;;;;;;1.05;1.00;;;;;;;3.80;66.68;102063.28;5127140;28;20027;-64
2024/03/06 11:04:33;;;;;;;1.67;1.48;;;;;;;3.91;66.51;102063.81;5126965;28;20045;-64
2024/03/06 11:07:00;;;;;;;2.22;1.40;;;;;;;3.95;66.50;102051.94;5126913;28;20072;-64
2024/03/06 11:09:27;;;;;;;1.00;0.80;;;;;;;4.06;66.16;102060.16;5126779;28;20083;-65
2024/03/06 11:11:54;;;;;;;0.60;0.60;;;;;;;4.14;65.99;102061.38;5125385;28;20023;-64
2024/03/06 11:14:24;;;;;;;2.15;1.33;;;;;;;4.17;65.59;102066.66;5108416;28;20039;-65
2024/03/06 11:17:03;;;;;;;2.55;1.83;;;;;;;4.26;65.80;102055.03;5108184;28;20112;-65
2024/03/06 11:19:33;;;;;;;3.92;2.55;;;;;;;4.33;65.63;102057.94;5126727;28;20023;-64
2024/03/06 11:21:59;;;;;;;2.15;1.15;;;;;;;4.46;65.09;102064.50;5126549;28;20019;-64
2024/03/06 11:24:34;;;;;;;3.33;1.85;;;;;;;4.37;64.94;102045.22;5126518;28;20020;-65
2024/03/06 11:27:05;;;;;;;1.35;1.25;;;;;;;4.57;63.98;102069.22;5126726;28;20086;-64
2024/03/06 11:30:10;;;;;;;0.70;0.70;;;;;;;4.60;63.94;102059.06;5125025;28;20490;-64